sensor_id;sensor_type;location;lat;lon;timestamp;temperature;humidity
24144;DHT22;12307;50.828;6.080;2023-02-22T00:01:51;20.30;56.20
24144;DHT22;12307;50.828;6.080;2023-02-22T00:04:36;20.30;56.20
24144;DHT22;12307;50.828;6.080;2023-02-22T00:07:04;20.30;56.20
24144;DHT22;12307;50.828;6.080;2023-02-22T00:09:29;20.30;56.20
24144;DHT22;12307;50.828;6.080;2023-02-22T00:11:55;20.30;56.20
24144;DHT22;12307;50.828;6.080;2023-02-22T00:14:20;20.30;56.20
24144;DHT22;12307;50.828;6.080;2023-02-22T00:16:46;20.30;56.20
24144;DHT22;12307;50.828;6.080;2023-02-22T00:19:12;20.20;56.10
24144;DHT22;12307;50.828;6.080;2023-02-22T00:21:39;20.30;56.20
24144;DHT22;12307;50.828;6.080;2023-02-22T00:24:04;20.30;56.20
24144;DHT22;12307;50.828;6.080;2023-02-22T00:26:47;20.20;56.10
24144;DHT22;12307;50.828;6.080;2023-02-22T00:29:13;20.30;56.20
24144;DHT22;12307;50.828;6.080;2023-02-22T00:31:39;20.20;56.10
24144;DHT22;12307;50.828;6.080;2023-02-22T00:34:04;20.30;56.10
24144;DHT22;12307;50.828;6.080;2023-02-22T00:36:30;20.30;56.20
24144;DHT22;12307;50.828;6.080;2023-02-22T00:38:57;20.30;56.20
24144;DHT22;12307;50.828;6.080;2023-02-22T00:41:23;20.30;56.20
24144;DHT22;12307;50.828;6.080;2023-02-22T00:43:48;20.30;56.20
24144;DHT22;12307;50.828;6.080;2023-02-22T00:46:14;20.20;56.10
24144;DHT22;12307;50.828;6.080;2023-02-22T00:48:40;20.20;56.10
24144;DHT22;12307;50.828;6.080;2023-02-22T00:51:05;20.20;56.10
24144;DHT22;12307;50.828;6.080;2023-02-22T00:53:31;20.20;56.10
24144;DHT22;12307;50.828;6.080;2023-02-22T00:55:58;20.20;56.10
24144;DHT22;12307;50.828;6.080;2023-02-22T00:58:24;20.20;56.10
24144;DHT22;12307;50.828;6.080;2023-02-22T01:00:51;20.20;56.10
24144;DHT22;12307;50.828;6.080;2023-02-22T01:03:18;20.20;56.10
24144;DHT22;12307;50.828;6.080;2023-02-22T01:05:44;20.20;56.10
24144;DHT22;12307;50.828;6.080;2023-02-22T01:08:11;20.20;56.10
24144;DHT22;12307;50.828;6.080;2023-02-22T01:10:38;20.20;56.10
24144;DHT22;12307;50.828;6.080;2023-02-22T01:13:06;20.20;56.10
24144;DHT22;12307;50.828;6.080;2023-02-22T01:15:34;20.20;56.10
24144;DHT22;12307;50.828;6.080;2023-02-22T01:18:00;20.20;56.10
24144;DHT22;12307;50.828;6.080;2023-02-22T01:20:26;20.20;56.10
24144;DHT22;12307;50.828;6.080;2023-02-22T01:22:54;20.20;56.10
24144;DHT22;12307;50.828;6.080;2023-02-22T01:25:23;20.20;56.10
24144;DHT22;12307;50.828;6.080;2023-02-22T01:27:50;20.20;56.10
24144;DHT22;12307;50.828;6.080;2023-02-22T01:30:20;20.20;56.10
24144;DHT22;12307;50.828;6.080;2023-02-22T01:32:47;20.20;56.10
24144;DHT22;12307;50.828;6.080;2023-02-22T01:35:14;20.20;56.10
24144;DHT22;12307;50.828;6.080;2023-02-22T01:37:40;20.20;56.10
24144;DHT22;12307;50.828;6.080;2023-02-22T01:40:09;20.20;56.10
24144;DHT22;12307;50.828;6.080;2023-02-22T01:42:35;20.20;56.10
24144;DHT22;12307;50.828;6.080;2023-02-22T01:48:10;20.20;56.10
24144;DHT22;12307;50.828;6.080;2023-02-22T01:50:39;20.20;56.10
24144;DHT22;12307;50.828;6.080;2023-02-22T01:53:07;20.10;56.00
24144;DHT22;12307;50.828;6.080;2023-02-22T01:55:34;20.10;56.00
24144;DHT22;12307;50.828;6.080;2023-02-22T01:58:00;20.10;56.00
24144;DHT22;12307;50.828;6.080;2023-02-22T02:00:26;20.10;56.00
24144;DHT22;12307;50.828;6.080;2023-02-22T02:02:56;20.10;56.00
24144;DHT22;12307;50.828;6.080;2023-02-22T02:05:25;20.10;56.00
24144;DHT22;12307;50.828;6.080;2023-02-22T02:07:51;20.10;56.00
24144;DHT22;12307;50.828;6.080;2023-02-22T02:10:17;20.10;56.00
24144;DHT22;12307;50.828;6.080;2023-02-22T02:12:44;20.10;56.70
24144;DHT22;12307;50.828;6.080;2023-02-22T02:15:19;20.10;56.00
24144;DHT22;12307;50.828;6.080;2023-02-22T02:17:46;20.10;56.00
24144;DHT22;12307;50.828;6.080;2023-02-22T02:20:17;20.10;56.00
24144;DHT22;12307;50.828;6.080;2023-02-22T02:22:49;20.10;56.00
24144;DHT22;12307;50.828;6.080;2023-02-22T02:29:01;20.10;56.00
24144;DHT22;12307;50.828;6.080;2023-02-22T02:34:30;20.10;56.00
24144;DHT22;12307;50.828;6.080;2023-02-22T02:37:01;20.10;56.00
24144;DHT22;12307;50.828;6.080;2023-02-22T02:39:36;20.10;56.00
24144;DHT22;12307;50.828;6.080;2023-02-22T02:42:07;20.10;56.00
24144;DHT22;12307;50.828;6.080;2023-02-22T02:44:38;20.10;56.00
24144;DHT22;12307;50.828;6.080;2023-02-22T02:47:09;20.10;56.00
24144;DHT22;12307;50.828;6.080;2023-02-22T02:49:42;20.10;56.70
24144;DHT22;12307;50.828;6.080;2023-02-22T02:52:11;20.10;56.00
24144;DHT22;12307;50.828;6.080;2023-02-22T02:54:39;20.10;56.00
24144;DHT22;12307;50.828;6.080;2023-02-22T02:57:05;20.10;56.00
24144;DHT22;12307;50.828;6.080;2023-02-22T02:59:35;20.10;55.90
24144;DHT22;12307;50.828;6.080;2023-02-22T03:02:15;20.10;55.90
24144;DHT22;12307;50.828;6.080;2023-02-22T03:04:55;20.10;55.90
24144;DHT22;12307;50.828;6.080;2023-02-22T03:07:32;20.10;55.90
24144;DHT22;12307;50.828;6.080;2023-02-22T03:10:24;20.10;55.90
24144;DHT22;12307;50.828;6.080;2023-02-22T03:13:04;20.10;55.90
24144;DHT22;12307;50.828;6.080;2023-02-22T03:15:39;20.10;55.90
24144;DHT22;12307;50.828;6.080;2023-02-22T03:18:12;20.10;55.90
24144;DHT22;12307;50.828;6.080;2023-02-22T03:20:46;20.10;55.90
24144;DHT22;12307;50.828;6.080;2023-02-22T03:23:22;20.10;55.90
24144;DHT22;12307;50.828;6.080;2023-02-22T03:25:54;20.10;55.90
24144;DHT22;12307;50.828;6.080;2023-02-22T03:28:24;20.00;55.80
24144;DHT22;12307;50.828;6.080;2023-02-22T03:30:53;20.00;55.80
24144;DHT22;12307;50.828;6.080;2023-02-22T03:33:29;20.00;55.80
24144;DHT22;12307;50.828;6.080;2023-02-22T03:36:04;20.00;55.80
24144;DHT22;12307;50.828;6.080;2023-02-22T03:38:32;20.00;55.80
24144;DHT22;12307;50.828;6.080;2023-02-22T03:41:01;20.00;55.80
24144;DHT22;12307;50.828;6.080;2023-02-22T03:43:33;20.00;55.80
24144;DHT22;12307;50.828;6.080;2023-02-22T03:46:01;20.00;55.80
24144;DHT22;12307;50.828;6.080;2023-02-22T03:48:36;20.00;55.80
24144;DHT22;12307;50.828;6.080;2023-02-22T03:51:04;20.00;55.80
24144;DHT22;12307;50.828;6.080;2023-02-22T03:53:31;20.00;55.80
24144;DHT22;12307;50.828;6.080;2023-02-22T03:55:58;20.00;55.80
24144;DHT22;12307;50.828;6.080;2023-02-22T03:58:27;20.00;55.80
24144;DHT22;12307;50.828;6.080;2023-02-22T04:00:54;20.00;55.80
24144;DHT22;12307;50.828;6.080;2023-02-22T04:03:20;20.00;55.80
24144;DHT22;12307;50.828;6.080;2023-02-22T04:05:47;20.00;55.80
24144;DHT22;12307;50.828;6.080;2023-02-22T04:08:14;20.00;55.80
24144;DHT22;12307;50.828;6.080;2023-02-22T04:10:40;20.00;55.80
24144;DHT22;12307;50.828;6.080;2023-02-22T04:13:06;20.00;55.70
24144;DHT22;12307;50.828;6.080;2023-02-22T04:15:31;20.00;55.70
24144;DHT22;12307;50.828;6.080;2023-02-22T04:17:57;20.00;55.80
24144;DHT22;12307;50.828;6.080;2023-02-22T04:20:23;20.00;55.70
24144;DHT22;12307;50.828;6.080;2023-02-22T04:22:50;20.00;55.70
24144;DHT22;12307;50.828;6.080;2023-02-22T04:25:18;19.90;55.70
24144;DHT22;12307;50.828;6.080;2023-02-22T04:27:44;20.00;55.80
24144;DHT22;12307;50.828;6.080;2023-02-22T04:30:10;19.90;55.70
24144;DHT22;12307;50.828;6.080;2023-02-22T04:32:36;20.00;55.70
24144;DHT22;12307;50.828;6.080;2023-02-22T04:35:02;19.90;55.60
24144;DHT22;12307;50.828;6.080;2023-02-22T04:37:28;19.90;55.70
24144;DHT22;12307;50.828;6.080;2023-02-22T04:39:54;19.90;55.70
24144;DHT22;12307;50.828;6.080;2023-02-22T04:42:21;19.90;55.60
24144;DHT22;12307;50.828;6.080;2023-02-22T04:44:46;19.90;55.60
24144;DHT22;12307;50.828;6.080;2023-02-22T04:47:12;19.90;55.60
24144;DHT22;12307;50.828;6.080;2023-02-22T04:49:39;19.90;55.60
24144;DHT22;12307;50.828;6.080;2023-02-22T04:52:04;19.90;55.60
24144;DHT22;12307;50.828;6.080;2023-02-22T04:54:30;19.90;55.60
24144;DHT22;12307;50.828;6.080;2023-02-22T04:56:56;19.90;55.60
24144;DHT22;12307;50.828;6.080;2023-02-22T04:59:23;19.90;55.60
24144;DHT22;12307;50.828;6.080;2023-02-22T05:01:49;19.90;55.50
24144;DHT22;12307;50.828;6.080;2023-02-22T05:04:14;19.90;55.50
24144;DHT22;12307;50.828;6.080;2023-02-22T05:06:40;19.90;55.50
24144;DHT22;12307;50.828;6.080;2023-02-22T05:09:06;19.90;55.50
24144;DHT22;12307;50.828;6.080;2023-02-22T05:11:31;19.90;55.50
24144;DHT22;12307;50.828;6.080;2023-02-22T05:13:57;19.90;55.50
24144;DHT22;12307;50.828;6.080;2023-02-22T05:16:24;19.90;55.50
24144;DHT22;12307;50.828;6.080;2023-02-22T05:18:50;19.90;55.50
24144;DHT22;12307;50.828;6.080;2023-02-22T05:21:16;19.90;55.50
24144;DHT22;12307;50.828;6.080;2023-02-22T05:23:42;19.90;55.50
24144;DHT22;12307;50.828;6.080;2023-02-22T05:26:08;19.90;55.60
24144;DHT22;12307;50.828;6.080;2023-02-22T05:28:34;19.90;55.50
24144;DHT22;12307;50.828;6.080;2023-02-22T05:31:00;19.90;55.50
24144;DHT22;12307;50.828;6.080;2023-02-22T05:33:27;19.90;55.50
24144;DHT22;12307;50.828;6.080;2023-02-22T05:35:53;19.90;55.50
24144;DHT22;12307;50.828;6.080;2023-02-22T05:38:20;19.90;55.70
24144;DHT22;12307;50.828;6.080;2023-02-22T05:40:47;19.90;55.60
24144;DHT22;12307;50.828;6.080;2023-02-22T05:43:13;19.90;55.50
24144;DHT22;12307;50.828;6.080;2023-02-22T05:45:40;19.90;55.50
24144;DHT22;12307;50.828;6.080;2023-02-22T05:48:06;19.90;55.50
24144;DHT22;12307;50.828;6.080;2023-02-22T05:50:33;19.90;55.50
24144;DHT22;12307;50.828;6.080;2023-02-22T05:53:00;19.90;55.50
24144;DHT22;12307;50.828;6.080;2023-02-22T05:55:26;19.90;55.50
24144;DHT22;12307;50.828;6.080;2023-02-22T05:57:52;19.90;55.50
24144;DHT22;12307;50.828;6.080;2023-02-22T06:00:21;19.90;55.50
24144;DHT22;12307;50.828;6.080;2023-02-22T06:02:53;19.90;55.50
24144;DHT22;12307;50.828;6.080;2023-02-22T06:05:19;19.90;55.50
24144;DHT22;12307;50.828;6.080;2023-02-22T06:07:46;19.90;55.50
24144;DHT22;12307;50.828;6.080;2023-02-22T06:10:11;19.90;55.50
24144;DHT22;12307;50.828;6.080;2023-02-22T06:12:38;19.90;55.40
24144;DHT22;12307;50.828;6.080;2023-02-22T06:15:04;19.90;55.40
24144;DHT22;12307;50.828;6.080;2023-02-22T06:17:30;19.90;55.40
24144;DHT22;12307;50.828;6.080;2023-02-22T06:19:56;19.90;55.40
24144;DHT22;12307;50.828;6.080;2023-02-22T06:22:22;19.90;55.40
24144;DHT22;12307;50.828;6.080;2023-02-22T06:24:49;19.90;55.40
24144;DHT22;12307;50.828;6.080;2023-02-22T06:27:14;19.90;55.40
24144;DHT22;12307;50.828;6.080;2023-02-22T06:29:43;19.90;55.40
24144;DHT22;12307;50.828;6.080;2023-02-22T06:32:09;19.90;55.40
24144;DHT22;12307;50.828;6.080;2023-02-22T06:34:35;19.90;55.40
24144;DHT22;12307;50.828;6.080;2023-02-22T06:37:01;19.90;55.40
24144;DHT22;12307;50.828;6.080;2023-02-22T06:39:26;19.80;55.30
24144;DHT22;12307;50.828;6.080;2023-02-22T06:41:53;19.90;55.40
24144;DHT22;12307;50.828;6.080;2023-02-22T06:44:21;19.90;55.40
24144;DHT22;12307;50.828;6.080;2023-02-22T06:46:47;19.90;55.40
24144;DHT22;12307;50.828;6.080;2023-02-22T06:49:13;19.90;55.40
24144;DHT22;12307;50.828;6.080;2023-02-22T06:51:39;19.90;55.40
24144;DHT22;12307;50.828;6.080;2023-02-22T06:54:05;19.90;55.40
24144;DHT22;12307;50.828;6.080;2023-02-22T06:56:31;19.90;55.30
24144;DHT22;12307;50.828;6.080;2023-02-22T06:58:58;19.90;55.30
24144;DHT22;12307;50.828;6.080;2023-02-22T07:01:23;19.90;55.30
24144;DHT22;12307;50.828;6.080;2023-02-22T07:03:49;19.90;55.20
24144;DHT22;12307;50.828;6.080;2023-02-22T07:06:15;20.00;55.30
24144;DHT22;12307;50.828;6.080;2023-02-22T07:08:40;20.00;55.20
24144;DHT22;12307;50.828;6.080;2023-02-22T07:11:06;20.00;55.20
24144;DHT22;12307;50.828;6.080;2023-02-22T07:13:32;20.00;55.20
24144;DHT22;12307;50.828;6.080;2023-02-22T07:15:59;20.00;55.10
24144;DHT22;12307;50.828;6.080;2023-02-22T07:18:25;20.00;55.10
24144;DHT22;12307;50.828;6.080;2023-02-22T07:20:50;20.10;55.10
24144;DHT22;12307;50.828;6.080;2023-02-22T07:23:17;20.00;55.00
24144;DHT22;12307;50.828;6.080;2023-02-22T07:25:43;20.10;55.00
24144;DHT22;12307;50.828;6.080;2023-02-22T07:28:09;20.10;54.90
24144;DHT22;12307;50.828;6.080;2023-02-22T07:30:37;20.10;54.80
24144;DHT22;12307;50.828;6.080;2023-02-22T07:33:05;20.00;54.70
24144;DHT22;12307;50.828;6.080;2023-02-22T07:35:33;20.00;54.50
24144;DHT22;12307;50.828;6.080;2023-02-22T07:38:01;19.90;54.30
24144;DHT22;12307;50.828;6.080;2023-02-22T07:40:27;19.80;54.10
24144;DHT22;12307;50.828;6.080;2023-02-22T07:42:55;19.80;53.90
24144;DHT22;12307;50.828;6.080;2023-02-22T07:45:22;19.70;53.80
24144;DHT22;12307;50.828;6.080;2023-02-22T07:47:49;19.70;53.60
24144;DHT22;12307;50.828;6.080;2023-02-22T07:50:17;19.60;53.40
24144;DHT22;12307;50.828;6.080;2023-02-22T07:52:44;19.60;53.40
24144;DHT22;12307;50.828;6.080;2023-02-22T07:55:12;19.70;53.40
24144;DHT22;12307;50.828;6.080;2023-02-22T07:57:38;19.70;53.40
24144;DHT22;12307;50.828;6.080;2023-02-22T08:00:04;19.80;53.40
24144;DHT22;12307;50.828;6.080;2023-02-22T08:02:30;19.80;53.20
24144;DHT22;12307;50.828;6.080;2023-02-22T08:04:56;19.90;53.20
24144;DHT22;12307;50.828;6.080;2023-02-22T08:07:23;20.00;53.10
24144;DHT22;12307;50.828;6.080;2023-02-22T08:09:48;20.00;53.00
24144;DHT22;12307;50.828;6.080;2023-02-22T08:12:14;20.10;52.90
24144;DHT22;12307;50.828;6.080;2023-02-22T08:14:40;20.20;52.80
24144;DHT22;12307;50.828;6.080;2023-02-22T08:17:06;20.30;52.70
24144;DHT22;12307;50.828;6.080;2023-02-22T08:19:32;20.30;52.70
24144;DHT22;12307;50.828;6.080;2023-02-22T08:21:57;20.40;52.80
24144;DHT22;12307;50.828;6.080;2023-02-22T08:24:24;20.50;52.60
24144;DHT22;12307;50.828;6.080;2023-02-22T08:26:50;20.60;52.60
24144;DHT22;12307;50.828;6.080;2023-02-22T08:29:16;20.70;52.50
24144;DHT22;12307;50.828;6.080;2023-02-22T08:31:41;20.80;52.50
24144;DHT22;12307;50.828;6.080;2023-02-22T08:34:07;20.90;52.50
24144;DHT22;12307;50.828;6.080;2023-02-22T08:36:33;21.00;52.40
24144;DHT22;12307;50.828;6.080;2023-02-22T08:38:58;21.00;52.30
24144;DHT22;12307;50.828;6.080;2023-02-22T08:41:25;21.10;52.30
24144;DHT22;12307;50.828;6.080;2023-02-22T08:43:51;21.20;52.30
24144;DHT22;12307;50.828;6.080;2023-02-22T08:46:17;21.30;52.30
24144;DHT22;12307;50.828;6.080;2023-02-22T08:48:48;21.30;52.30
24144;DHT22;12307;50.828;6.080;2023-02-22T08:51:14;21.40;52.30
24144;DHT22;12307;50.828;6.080;2023-02-22T08:53:40;21.50;52.30
24144;DHT22;12307;50.828;6.080;2023-02-22T08:56:06;21.50;52.30
24144;DHT22;12307;50.828;6.080;2023-02-22T08:58:33;21.60;52.30
24144;DHT22;12307;50.828;6.080;2023-02-22T09:00:59;21.70;52.30
24144;DHT22;12307;50.828;6.080;2023-02-22T09:03:24;21.70;52.20
24144;DHT22;12307;50.828;6.080;2023-02-22T09:05:50;21.80;52.20
24144;DHT22;12307;50.828;6.080;2023-02-22T09:08:16;21.90;52.20
24144;DHT22;12307;50.828;6.080;2023-02-22T09:10:42;22.00;52.80
24144;DHT22;12307;50.828;6.080;2023-02-22T09:13:09;22.10;52.00
24144;DHT22;12307;50.828;6.080;2023-02-22T09:15:37;22.20;51.90
24144;DHT22;12307;50.828;6.080;2023-02-22T09:18:06;22.30;51.90
24144;DHT22;12307;50.828;6.080;2023-02-22T09:20:35;22.40;51.70
24144;DHT22;12307;50.828;6.080;2023-02-22T09:23:02;22.40;51.50
24144;DHT22;12307;50.828;6.080;2023-02-22T09:25:28;22.60;51.50
24144;DHT22;12307;50.828;6.080;2023-02-22T09:27:55;22.70;51.30
24144;DHT22;12307;50.828;6.080;2023-02-22T09:30:24;22.80;51.10
24144;DHT22;12307;50.828;6.080;2023-02-22T09:32:53;23.00;50.90
24144;DHT22;12307;50.828;6.080;2023-02-22T09:35:20;23.20;50.70
24144;DHT22;12307;50.828;6.080;2023-02-22T09:37:52;23.40;50.50
24144;DHT22;12307;50.828;6.080;2023-02-22T09:40:18;23.60;50.20
24144;DHT22;12307;50.828;6.080;2023-02-22T09:42:55;23.80;49.90
24144;DHT22;12307;50.828;6.080;2023-02-22T09:45:31;24.10;49.70
24144;DHT22;12307;50.828;6.080;2023-02-22T09:48:05;24.30;49.30
24144;DHT22;12307;50.828;6.080;2023-02-22T09:50:34;24.50;49.00
24144;DHT22;12307;50.828;6.080;2023-02-22T09:53:04;24.70;48.70
24144;DHT22;12307;50.828;6.080;2023-02-22T09:55:33;24.90;48.40
24144;DHT22;12307;50.828;6.080;2023-02-22T09:58:05;25.10;48.20
24144;DHT22;12307;50.828;6.080;2023-02-22T10:00:34;25.20;48.10
24144;DHT22;12307;50.828;6.080;2023-02-22T10:03:11;25.20;47.80
24144;DHT22;12307;50.828;6.080;2023-02-22T10:05:43;25.30;47.80
24144;DHT22;12307;50.828;6.080;2023-02-22T10:08:12;25.30;47.70
24144;DHT22;12307;50.828;6.080;2023-02-22T10:10:41;25.40;48.30
24144;DHT22;12307;50.828;6.080;2023-02-22T10:13:15;25.40;47.60
24144;DHT22;12307;50.828;6.080;2023-02-22T10:15:50;25.50;47.60
24144;DHT22;12307;50.828;6.080;2023-02-22T10:21:39;25.60;47.40
24144;DHT22;12307;50.828;6.080;2023-02-22T10:24:18;25.60;47.40
24144;DHT22;12307;50.828;6.080;2023-02-22T10:26:50;25.60;47.40
24144;DHT22;12307;50.828;6.080;2023-02-22T10:29:24;25.70;47.40
24144;DHT22;12307;50.828;6.080;2023-02-22T10:31:58;25.80;47.30
24144;DHT22;12307;50.828;6.080;2023-02-22T10:34:28;25.90;47.20
24144;DHT22;12307;50.828;6.080;2023-02-22T10:36:58;26.00;47.20
24144;DHT22;12307;50.828;6.080;2023-02-22T10:39:27;26.00;47.10
24144;DHT22;12307;50.828;6.080;2023-02-22T10:41:56;26.00;47.10
24144;DHT22;12307;50.828;6.080;2023-02-22T10:44:23;26.10;47.10
24144;DHT22;12307;50.828;6.080;2023-02-22T10:46:50;26.00;47.10
24144;DHT22;12307;50.828;6.080;2023-02-22T10:49:20;26.00;47.10
24144;DHT22;12307;50.828;6.080;2023-02-22T10:51:47;26.00;47.10
24144;DHT22;12307;50.828;6.080;2023-02-22T10:54:26;26.00;47.10
24144;DHT22;12307;50.828;6.080;2023-02-22T10:56:53;26.00;47.10
24144;DHT22;12307;50.828;6.080;2023-02-22T10:59:29;26.00;47.00
24144;DHT22;12307;50.828;6.080;2023-02-22T11:01:56;26.10;46.90
24144;DHT22;12307;50.828;6.080;2023-02-22T11:04:22;26.20;47.00
24144;DHT22;12307;50.828;6.080;2023-02-22T11:07:05;26.20;46.90
24144;DHT22;12307;50.828;6.080;2023-02-22T11:09:45;26.20;46.70
24144;DHT22;12307;50.828;6.080;2023-02-22T11:12:17;26.30;46.70
24144;DHT22;12307;50.828;6.080;2023-02-22T11:14:43;26.30;46.50
24144;DHT22;12307;50.828;6.080;2023-02-22T11:17:10;26.40;46.40
24144;DHT22;12307;50.828;6.080;2023-02-22T11:19:45;26.40;46.30
24144;DHT22;12307;50.828;6.080;2023-02-22T11:22:18;26.40;46.00
24144;DHT22;12307;50.828;6.080;2023-02-22T11:24:48;26.40;45.90
24144;DHT22;12307;50.828;6.080;2023-02-22T11:27:27;26.50;45.90
24144;DHT22;12307;50.828;6.080;2023-02-22T11:29:58;26.40;45.90
24144;DHT22;12307;50.828;6.080;2023-02-22T11:32:30;26.30;46.00
24144;DHT22;12307;50.828;6.080;2023-02-22T11:35:17;26.10;46.10
24144;DHT22;12307;50.828;6.080;2023-02-22T11:37:46;26.00;46.20
24144;DHT22;12307;50.828;6.080;2023-02-22T11:40:16;25.80;46.40
24144;DHT22;12307;50.828;6.080;2023-02-22T11:42:44;25.70;46.70
24144;DHT22;12307;50.828;6.080;2023-02-22T11:45:13;25.50;46.70
24144;DHT22;12307;50.828;6.080;2023-02-22T11:47:47;25.40;46.90
24144;DHT22;12307;50.828;6.080;2023-02-22T11:50:19;25.20;47.10
24144;DHT22;12307;50.828;6.080;2023-02-22T11:52:48;25.10;47.30
24144;DHT22;12307;50.828;6.080;2023-02-22T11:55:22;25.10;47.50
24144;DHT22;12307;50.828;6.080;2023-02-22T11:57:57;25.00;47.60
24144;DHT22;12307;50.828;6.080;2023-02-22T12:00:32;24.90;47.70
24144;DHT22;12307;50.828;6.080;2023-02-22T12:06:03;24.80;47.90
24144;DHT22;12307;50.828;6.080;2023-02-22T12:08:43;24.80;48.00
24144;DHT22;12307;50.828;6.080;2023-02-22T12:11:19;24.70;48.10
24144;DHT22;12307;50.828;6.080;2023-02-22T12:14:05;24.80;48.10
24144;DHT22;12307;50.828;6.080;2023-02-22T12:16:57;24.80;48.10
24144;DHT22;12307;50.828;6.080;2023-02-22T12:19:30;24.80;48.20
24144;DHT22;12307;50.828;6.080;2023-02-22T12:21:59;24.80;48.20
24144;DHT22;12307;50.828;6.080;2023-02-22T12:24:33;24.70;48.30
24144;DHT22;12307;50.828;6.080;2023-02-22T12:27:03;24.70;48.40
24144;DHT22;12307;50.828;6.080;2023-02-22T12:29:36;24.60;48.40
24144;DHT22;12307;50.828;6.080;2023-02-22T12:32:06;24.60;48.50
24144;DHT22;12307;50.828;6.080;2023-02-22T12:34:37;24.50;48.50
24144;DHT22;12307;50.828;6.080;2023-02-22T12:37:13;24.50;48.60
24144;DHT22;12307;50.828;6.080;2023-02-22T12:39:48;24.40;48.70
24144;DHT22;12307;50.828;6.080;2023-02-22T12:42:20;24.30;48.70
24144;DHT22;12307;50.828;6.080;2023-02-22T12:44:53;24.30;48.90
24144;DHT22;12307;50.828;6.080;2023-02-22T12:47:22;24.10;48.90
24144;DHT22;12307;50.828;6.080;2023-02-22T12:49:56;24.00;49.00
24144;DHT22;12307;50.828;6.080;2023-02-22T12:52:33;24.00;49.20
24144;DHT22;12307;50.828;6.080;2023-02-22T12:55:05;23.90;49.30
24144;DHT22;12307;50.828;6.080;2023-02-22T12:57:39;23.80;49.40
24144;DHT22;12307;50.828;6.080;2023-02-22T13:00:13;23.90;49.50
24144;DHT22;12307;50.828;6.080;2023-02-22T13:02:44;24.00;49.50
24144;DHT22;12307;50.828;6.080;2023-02-22T13:05:15;24.00;49.50
24144;DHT22;12307;50.828;6.080;2023-02-22T13:07:50;24.10;49.40
24144;DHT22;12307;50.828;6.080;2023-02-22T13:10:27;24.20;49.40
24144;DHT22;12307;50.828;6.080;2023-02-22T13:13:03;24.20;49.40
24144;DHT22;12307;50.828;6.080;2023-02-22T13:15:37;24.30;49.50
24144;DHT22;12307;50.828;6.080;2023-02-22T13:18:09;24.30;49.50
24144;DHT22;12307;50.828;6.080;2023-02-22T13:20:42;24.30;49.60
24144;DHT22;12307;50.828;6.080;2023-02-22T13:23:14;24.30;49.80
24144;DHT22;12307;50.828;6.080;2023-02-22T13:25:44;24.30;49.90
24144;DHT22;12307;50.828;6.080;2023-02-22T13:28:21;24.20;50.10
24144;DHT22;12307;50.828;6.080;2023-02-22T13:31:00;24.10;50.30
24144;DHT22;12307;50.828;6.080;2023-02-22T13:33:39;24.00;50.40
24144;DHT22;12307;50.828;6.080;2023-02-22T13:36:16;23.90;50.60
24144;DHT22;12307;50.828;6.080;2023-02-22T13:42:17;23.70;50.90
24144;DHT22;12307;50.828;6.080;2023-02-22T13:51:14;23.50;51.20
24144;DHT22;12307;50.828;6.080;2023-02-22T13:53:48;23.50;51.40
24144;DHT22;12307;50.828;6.080;2023-02-22T13:56:19;23.50;51.40
24144;DHT22;12307;50.828;6.080;2023-02-22T13:58:51;23.50;51.50
24144;DHT22;12307;50.828;6.080;2023-02-22T14:01:38;23.40;51.60
24144;DHT22;12307;50.828;6.080;2023-02-22T14:10:45;23.20;52.00
24144;DHT22;12307;50.828;6.080;2023-02-22T14:13:12;23.10;52.10
24144;DHT22;12307;50.828;6.080;2023-02-22T14:16:22;23.00;52.10
24144;DHT22;12307;50.828;6.080;2023-02-22T14:18:59;22.90;52.10
24144;DHT22;12307;50.828;6.080;2023-02-22T14:21:27;22.80;52.10
24144;DHT22;12307;50.828;6.080;2023-02-22T14:23:54;22.80;52.10
24144;DHT22;12307;50.828;6.080;2023-02-22T14:26:25;22.70;52.10
24144;DHT22;12307;50.828;6.080;2023-02-22T14:28:53;22.70;52.10
24144;DHT22;12307;50.828;6.080;2023-02-22T14:31:21;22.70;52.10
24144;DHT22;12307;50.828;6.080;2023-02-22T14:34:01;22.70;52.10
24144;DHT22;12307;50.828;6.080;2023-02-22T14:36:32;22.60;52.10
24144;DHT22;12307;50.828;6.080;2023-02-22T14:39:06;22.60;52.10
24144;DHT22;12307;50.828;6.080;2023-02-22T14:41:36;22.60;52.10
24144;DHT22;12307;50.828;6.080;2023-02-22T14:44:03;22.60;52.10
24144;DHT22;12307;50.828;6.080;2023-02-22T14:46:33;22.50;52.10
24144;DHT22;12307;50.828;6.080;2023-02-22T14:49:03;22.50;52.10
24144;DHT22;12307;50.828;6.080;2023-02-22T14:51:43;22.50;52.10
24144;DHT22;12307;50.828;6.080;2023-02-22T14:54:20;22.50;52.10
24144;DHT22;12307;50.828;6.080;2023-02-22T14:56:52;22.50;52.10
24144;DHT22;12307;50.828;6.080;2023-02-22T14:59:21;22.50;52.10
24144;DHT22;12307;50.828;6.080;2023-02-22T15:02:03;22.40;52.00
24144;DHT22;12307;50.828;6.080;2023-02-22T15:04:30;22.40;52.10
24144;DHT22;12307;50.828;6.080;2023-02-22T15:06:59;22.40;52.10
24144;DHT22;12307;50.828;6.080;2023-02-22T15:09:27;22.40;52.20
24144;DHT22;12307;50.828;6.080;2023-02-22T15:11:56;22.30;52.20
24144;DHT22;12307;50.828;6.080;2023-02-22T15:14:37;22.30;52.30
24144;DHT22;12307;50.828;6.080;2023-02-22T15:17:11;22.20;52.40
24144;DHT22;12307;50.828;6.080;2023-02-22T15:19:39;22.20;52.40
24144;DHT22;12307;50.828;6.080;2023-02-22T15:22:18;22.10;52.50
24144;DHT22;12307;50.828;6.080;2023-02-22T15:24:57;22.10;52.60
24144;DHT22;12307;50.828;6.080;2023-02-22T15:27:23;22.00;52.60
24144;DHT22;12307;50.828;6.080;2023-02-22T15:29:56;22.00;52.70
24144;DHT22;12307;50.828;6.080;2023-02-22T15:32:29;21.90;52.70
24144;DHT22;12307;50.828;6.080;2023-02-22T15:35:11;21.90;52.80
24144;DHT22;12307;50.828;6.080;2023-02-22T15:37:38;21.90;52.90
24144;DHT22;12307;50.828;6.080;2023-02-22T15:40:07;21.90;52.90
24144;DHT22;12307;50.828;6.080;2023-02-22T15:42:43;21.90;52.90
24144;DHT22;12307;50.828;6.080;2023-02-22T15:45:14;21.80;52.80
24144;DHT22;12307;50.828;6.080;2023-02-22T15:47:42;21.80;52.90
24144;DHT22;12307;50.828;6.080;2023-02-22T15:50:19;21.80;52.90
24144;DHT22;12307;50.828;6.080;2023-02-22T15:52:55;21.70;52.80
24144;DHT22;12307;50.828;6.080;2023-02-22T15:55:25;21.70;52.90
24144;DHT22;12307;50.828;6.080;2023-02-22T15:57:51;21.70;52.90
24144;DHT22;12307;50.828;6.080;2023-02-22T16:00:19;21.70;53.00
24144;DHT22;12307;50.828;6.080;2023-02-22T16:02:45;21.60;53.00
24144;DHT22;12307;50.828;6.080;2023-02-22T16:05:13;21.60;53.00
24144;DHT22;12307;50.828;6.080;2023-02-22T16:07:44;21.60;53.00
24144;DHT22;12307;50.828;6.080;2023-02-22T16:10:22;21.50;53.10
24144;DHT22;12307;50.828;6.080;2023-02-22T16:12:48;21.50;53.10
24144;DHT22;12307;50.828;6.080;2023-02-22T16:15:16;21.40;53.10
24144;DHT22;12307;50.828;6.080;2023-02-22T16:17:43;21.40;53.20